Selviria, Brazil
Current Conditions -  °F | °C
As of 1:00 AM on Friday 31 Oct 2014 (Local Time) from SBDN Reporting Station
Thunderstorm Thunderstorm  
Wind Chill: 70°   Ceiling: 6000
Heat Index: 70°   Visibility: 6mi
Dew Point: 68°   Wind: 5mph
Humidity: 94%   Direction: 120°ESE
Pressure: NA   Gusts: NA
Location:  20.37°S, 51.42°W
Report Text: SBDN 310400Z 12004KT 9999 -TSRA FEW050CB BKN060 OVC090 21/20 Q1014 RERA
Loading
Personal Weather Stations






























Interactive Weather Map
Tropical Storm Tracking
New forecast layout! Learn more

10-Day Weather Forecast

Advertisements
Track Severe Weather on mobile